Time;durP1;ratioP1;P1;durP2;ratioP2;P2;SDS_P1;SDS_P2;PMS_P1;PMS_P2;Temp;Humidity;BMP_temperature;BMP_pressure;BME280_temperature;BME280_humidity;BME280_pressure;Samples;Min_cycle;Max_cycle;Signal;HPM_P1;HPM_P2
2023/05/28 00:01:06;;;;;;;11.60;3.60;;;8.60;99.90;7.80;101228;;;;558032;251;24110;-75
2023/05/28 00:03:35;;;;;;;8.50;2.90;;;8.90;99.90;7.70;101228;;;;557742;251;24218;-75
2023/05/28 00:06:06;;;;;;;9.83;3.53;;;8.50;99.90;7.70;101224;;;;557065;249;35365;-74
2023/05/28 00:08:34;;;;;;;5.23;2.50;;;8.50;99.90;7.70;101233;;;;561897;251;24167;-74
2023/05/28 00:11:02;;;;;;;6.13;2.20;;;8.50;99.90;7.60;101218;;;;561775;250;24089;-75
2023/05/28 00:13:30;;;;;;;10.53;3.57;;;8.30;99.90;7.60;101217;;;;557538;251;24103;-74
2023/05/28 00:15:58;;;;;;;18.17;4.87;;;8.40;99.90;7.50;101216;;;;556693;251;35310;-75
2023/05/28 00:18:30;;;;;;;7.93;2.50;;;8.50;99.90;7.50;101220;;;;558196;251;24099;-75
2023/05/28 00:20:54;;;;;;;13.93;4.10;;;8.50;99.90;7.40;101207;;;;570318;245;24145;-75
2023/05/28 00:23:22;;;;;;;6.30;2.47;;;8.30;99.90;7.40;101214;;;;562865;251;24110;-75
2023/05/28 00:25:51;;;;;;;13.53;4.03;;;8.30;99.90;7.40;101210;;;;562598;251;24098;-76
2023/05/28 00:28:20;;;;;;;45.03;9.63;;;8.60;99.90;7.40;101212;;;;559011;251;24088;-75
2023/05/28 00:30:48;;;;;;;28.27;6.87;;;8.30;99.90;7.40;101213;;;;559226;251;24086;-74
2023/05/28 00:33:18;;;;;;;28.47;7.17;;;8.20;99.90;7.30;101207;;;;558300;251;24091;-75
2023/05/28 00:35:49;;;;;;;9.97;3.13;;;8.10;99.90;7.30;101204;;;;562176;251;24091;-75
2023/05/28 00:38:16;;;;;;;19.37;5.13;;;8.10;99.90;7.30;101212;;;;558046;251;24090;-74
2023/05/28 00:40:44;;;;;;;20.27;5.73;;;8.20;99.90;7.20;101215;;;;559131;251;24106;-76
2023/05/28 00:43:13;;;;;;;15.40;4.43;;;7.70;99.90;7.20;101206;;;;562607;251;24104;-73
2023/05/28 00:45:42;;;;;;;10.17;3.90;;;8.10;99.90;7.20;101203;;;;562138;251;24103;-73
2023/05/28 00:48:10;;;;;;;11.37;3.73;;;7.80;99.90;7.10;101198;;;;558116;251;24123;-75
2023/05/28 00:50:38;;;;;;;8.17;3.67;;;8.00;99.90;7.10;101199;;;;557095;249;35398;-74
2023/05/28 00:53:06;;;;;;;7.37;2.87;;;8.00;99.90;7.10;101188;;;;561945;251;24193;-74
2023/05/28 00:55:38;;;;;;;7.17;2.60;;;7.90;99.90;7.00;101188;;;;561813;250;24143;-77
2023/05/28 00:58:05;;;;;;;14.03;3.60;;;8.00;99.90;7.00;101191;;;;561603;251;24116;-73
2023/05/28 01:00:30;;;;;;;11.50;2.80;;;7.80;99.90;7.00;101190;;;;557517;251;24108;-75
2023/05/28 01:03:01;;;;;;;6.70;2.33;;;7.80;99.90;7.00;101191;;;;557440;251;24099;-75
2023/05/28 01:05:26;;;;;;;11.93;3.20;;;7.70;99.90;7.00;101182;;;;561488;250;24147;-73
2023/05/28 01:07:56;;;;;;;6.03;2.10;;;7.70;99.90;7.00;101186;;;;557786;251;24130;-75
2023/05/28 01:10:23;;;;;;;6.23;2.17;;;8.10;99.90;7.00;101188;;;;557945;251;24159;-75
2023/05/28 01:12:51;;;;;;;7.47;2.83;;;7.80;99.90;6.90;101179;;;;562511;249;24168;-79
2023/05/28 01:15:19;;;;;;;8.35;2.85;;;7.90;99.90;6.90;101183;;;;558169;251;35333;-76
2023/05/28 01:17:47;;;;;;;7.17;2.30;;;7.60;99.90;7.00;101184;;;;562890;249;24084;-78
2023/05/28 01:20:18;;;;;;;7.27;2.23;;;8.00;99.90;6.90;101179;;;;558731;251;24090;-79
2023/05/28 01:22:49;;;;;;;5.50;2.13;;;7.50;99.90;6.90;101173;;;;562818;250;24149;-79
2023/05/28 01:25:16;;;;;;;3.80;1.87;;;7.70;99.90;6.90;101167;;;;562624;249;24104;-77
2023/05/28 01:27:45;;;;;;;5.63;1.97;;;8.00;99.90;7.00;101168;;;;562360;249;24192;-74
2023/05/28 01:30:18;;;;;;;5.03;1.93;;;7.70;99.90;6.90;101166;;;;561808;249;24103;-75
2023/05/28 01:32:43;;;;;;;5.87;2.60;;;7.80;99.90;6.90;101162;;;;561532;251;24166;-75
2023/05/28 01:35:15;;;;;;;6.93;2.77;;;7.60;99.90;6.90;101169;;;;558252;251;24110;-74
2023/05/28 01:37:44;;;;;;;8.07;2.10;;;7.80;99.90;6.80;101159;;;;562098;251;24110;-76
2023/05/28 01:40:14;;;;;;;9.03;2.73;;;7.70;99.90;6.80;101165;;;;562667;251;24162;-75
2023/05/28 01:42:42;;;;;;;8.27;2.93;;;7.70;99.90;6.80;101167;;;;562772;251;24080;-75
2023/05/28 01:45:10;;;;;;;4.43;1.80;;;7.80;99.90;6.80;101163;;;;558742;251;24098;-77
2023/05/28 01:47:37;;;;;;;5.97;2.13;;;7.80;99.90;6.80;101162;;;;563370;251;24128;-74
2023/05/28 01:50:09;;;;;;;7.33;2.57;;;7.80;99.90;6.80;101163;;;;562843;251;24119;-75
2023/05/28 01:52:37;;;;;;;7.07;2.43;;;7.60;99.90;6.80;101164;;;;563590;251;24096;-74
2023/05/28 01:55:05;;;;;;;12.60;3.10;;;7.70;99.90;6.80;101157;;;;563202;249;24153;-76
2023/05/28 01:57:30;;;;;;;10.47;2.30;;;7.70;99.90;6.80;101164;;;;563450;251;24128;-74
2023/05/28 01:59:58;;;;;;;6.27;2.57;;;7.70;99.90;6.80;101158;;;;559393;251;24200;-74
2023/05/28 02:02:26;;;;;;;7.03;1.83;;;7.70;99.90;6.80;101153;;;;558936;251;24169;-74
2023/05/28 02:04:55;;;;;;;9.93;3.43;;;7.70;99.90;6.80;101153;;;;563092;249;24099;-75
2023/05/28 02:07:23;;;;;;;10.17;2.93;;;7.80;99.90;6.80;101158;;;;563081;251;24088;-78
2023/05/28 02:09:52;;;;;;;6.97;1.93;;;7.70;99.90;6.80;101149;;;;558810;251;24199;-74
2023/05/28 02:12:20;;;;;;;6.57;2.57;;;7.70;99.90;6.80;101144;;;;563271;251;24092;-80
2023/05/28 02:14:48;;;;;;;12.37;3.07;;;7.70;99.90;6.80;101145;;;;563297;251;24153;-78
2023/05/28 02:17:17;;;;;;;6.03;2.47;;;7.70;99.90;6.80;101144;;;;558806;251;24105;-79
2023/05/28 02:19:45;;;;;;;12.60;3.50;;;7.80;99.90;6.90;101140;;;;562794;251;24105;-78
2023/05/28 02:22:13;;;;;;;7.27;2.37;;;8.00;99.90;6.90;101149;;;;558789;251;24105;-77
2023/05/28 02:24:41;;;;;;;18.10;4.70;;;7.90;99.90;6.90;101136;;;;558777;250;24105;-76
2023/05/28 02:27:12;;;;;;;12.67;3.37;;;7.80;99.90;6.90;101132;;;;562712;249;24139;-81
2023/05/28 02:29:38;;;;;;;8.87;2.73;;;7.80;99.90;6.90;101134;;;;562501;250;24213;-79
2023/05/28 02:32:09;;;;;;;8.53;2.80;;;7.80;99.90;6.90;101134;;;;558743;251;24108;-81
2023/05/28 02:34:35;;;;;;;5.97;2.20;;;7.80;99.90;6.90;101127;;;;562751;250;24109;-78
2023/05/28 02:37:02;;;;;;;20.87;5.37;;;8.00;99.90;6.90;101128;;;;558886;251;24118;-75
2023/05/28 02:39:31;;;;;;;12.70;3.43;;;7.70;99.90;6.90;101133;;;;562934;251;24110;-75
2023/05/28 02:42:00;;;;;;;11.43;3.47;;;7.80;99.90;7.00;101132;;;;561853;251;24130;-74
2023/05/28 02:44:27;;;;;;;17.00;4.37;;;7.80;99.90;7.00;101138;;;;557773;251;24409;-74
2023/05/28 02:46:55;;;;;;;23.67;4.77;;;7.80;99.90;7.00;101144;;;;557329;251;24140;-74
2023/05/28 02:49:23;;;;;;;15.23;3.63;;;7.90;99.90;7.00;101136;;;;557225;251;24107;-74
2023/05/28 02:51:51;;;;;;;9.80;2.57;;;7.90;99.90;7.00;101130;;;;557397;251;24096;-76
2023/05/28 02:54:20;;;;;;;10.33;2.93;;;7.90;99.90;7.10;101132;;;;557578;251;24116;-74
2023/05/28 02:56:51;;;;;;;10.90;2.80;;;8.00;99.90;7.20;101128;;;;557628;251;24100;-75
2023/05/28 02:59:19;;;;;;;9.93;2.53;;;8.00;99.90;7.20;101131;;;;561971;251;24142;-74
2023/05/28 03:01:48;;;;;;;12.40;3.87;;;8.10;99.90;7.30;101127;;;;557684;251;24085;-74
2023/05/28 03:04:16;;;;;;;11.13;3.17;;;8.10;99.90;7.40;101129;;;;563978;251;24115;-76
2023/05/28 03:06:45;;;;;;;15.63;2.37;;;8.30;99.90;7.50;101128;;;;559065;251;24117;-76
2023/05/28 03:09:13;;;;;;;10.70;2.80;;;8.20;99.90;7.60;101141;;;;558796;251;24090;-74
2023/05/28 03:11:41;;;;;;;5.80;1.97;;;8.50;99.90;7.60;101136;;;;558381;251;24101;-74
2023/05/28 03:14:09;;;;;;;9.53;3.03;;;8.50;99.90;7.80;101125;;;;558170;251;24149;-72
2023/05/28 03:16:37;;;;;;;9.63;2.77;;;8.10;99.90;7.80;101123;;;;557784;251;24178;-75
2023/05/28 03:19:06;;;;;;;9.30;2.70;;;8.70;99.90;7.90;101124;;;;558209;251;24149;-76
2023/05/28 03:21:34;;;;;;;8.63;2.67;;;8.90;99.90;8.10;101126;;;;557712;251;24080;-74
2023/05/28 03:24:04;;;;;;;6.37;2.17;;;9.20;99.90;8.30;101118;;;;557566;251;24138;-74
2023/05/28 03:26:32;;;;;;;8.37;2.33;;;9.60;99.90;8.90;101128;;;;561582;250;24126;-75
2023/05/28 03:28:57;;;;;;;11.20;3.00;;;9.90;99.90;9.60;101124;;;;569895;245;24125;-75
2023/05/28 03:31:31;;;;;;;11.87;3.37;;;10.80;99.90;10.30;101126;;;;557730;251;24129;-76
2023/05/28 03:33:56;;;;;;;10.77;3.10;;;11.60;99.90;10.90;101119;;;;561872;250;24158;-74
2023/05/28 03:36:29;;;;;;;14.30;3.80;;;11.90;99.90;11.50;101124;;;;561777;249;24167;-74
2023/05/28 03:38:56;;;;;;;20.73;3.20;;;12.70;99.90;12.20;101121;;;;562301;251;24131;-74
2023/05/28 03:41:23;;;;;;;10.37;3.03;;;13.10;99.90;12.80;101120;;;;561827;251;24104;-78
2023/05/28 03:43:51;;;;;;;7.43;2.93;;;13.90;99.90;13.10;101116;;;;562254;248;24106;-79
2023/05/28 03:46:19;;;;;;;12.17;3.60;;;14.10;99.00;13.60;101116;;;;562206;251;24198;-77
2023/05/28 03:48:47;;;;;;;9.50;3.07;;;14.70;97.20;14.20;101118;;;;562246;250;24088;-76
2023/05/28 03:51:18;;;;;;;6.53;2.30;;;15.30;95.60;14.80;101125;;;;562387;250;24089;-76
2023/05/28 03:53:43;;;;;;;11.63;3.43;;;16.10;93.90;15.40;101124;;;;558259;251;24104;-74
2023/05/28 03:56:14;;;;;;;6.50;2.23;;;16.80;92.40;15.90;101126;;;;562275;251;24153;-75
2023/05/28 03:58:39;;;;;;;5.87;2.37;;;17.00;91.10;16.30;101129;;;;561644;250;24087;-74
2023/05/28 04:01:09;;;;;;;9.57;3.30;;;17.30;88.90;16.90;101121;;;;561954;251;24111;-76
2023/05/28 04:03:36;;;;;;;8.20;2.80;;;18.10;86.30;17.40;101130;;;;561586;249;24091;-75
2023/05/28 04:06:07;;;;;;;4.83;2.07;;;18.10;86.40;18.00;101131;;;;561544;249;24114;-74
2023/05/28 04:08:32;;;;;;;4.27;2.27;;;18.80;82.70;18.60;101133;;;;561670;251;23162;-74
2023/05/28 04:11:00;;;;;;;9.63;2.90;;;19.80;74.40;19.00;101130;;;;561659;250;23108;-75
2023/05/28 04:13:28;;;;;;;3.90;2.07;;;19.90;74.70;19.40;101137;;;;561864;249;23101;-74
2023/05/28 04:15:59;;;;;;;4.63;2.00;;;20.70;70.40;19.90;101128;;;;563133;249;24196;-74
2023/05/28 04:18:23;;;;;;;2.73;1.90;;;20.80;70.50;20.50;101134;;;;562829;250;24079;-74
2023/05/28 04:20:51;;;;;;;6.20;2.20;;;21.40;68.40;21.00;101134;;;;562750;249;24099;-74
2023/05/28 04:23:19;;;;;;;8.97;3.13;;;21.90;65.70;21.50;101131;;;;562542;251;24077;-74
2023/05/28 04:25:47;;;;;;;4.73;1.97;;;22.40;64.10;22.10;101135;;;;562325;249;23164;-75
2023/05/28 04:28:15;;;;;;;5.07;2.17;;;23.00;61.40;22.60;101135;;;;562330;251;24076;-76
2023/05/28 04:30:44;;;;;;;4.57;2.50;;;24.10;58.10;23.10;101128;;;;562374;249;23113;-75
2023/05/28 04:33:16;;;;;;;6.37;2.33;;;24.70;56.40;23.70;101132;;;;562407;251;23095;-76
2023/05/28 04:35:41;;;;;;;5.70;2.30;;;25.20;54.90;24.20;101128;;;;561799;250;23182;-75
2023/05/28 04:38:09;;;;;;;6.70;2.43;;;25.10;54.80;24.50;101132;;;;562408;250;23171;-76
2023/05/28 04:40:37;;;;;;;7.00;3.07;;;25.60;53.70;24.90;101132;;;;562393;251;23106;-77
2023/05/28 04:43:05;;;;;;;11.50;3.47;;;26.00;53.00;25.30;101136;;;;562786;249;23097;-79
2023/05/28 04:45:33;;;;;;;2.03;1.50;;;26.40;52.30;26.10;101137;;;;562634;251;24110;-77
2023/05/28 04:48:01;;;;;;;7.07;3.03;;;27.40;49.00;26.30;101141;;;;562830;251;23102;-76
2023/05/28 04:50:29;;;;;;;2.70;1.90;;;27.40;49.40;26.70;101139;;;;562753;250;23125;-77
2023/05/28 04:52:56;;;;;;;5.37;2.15;;;27.80;48.60;27.00;101143;;;;562340;251;23087;-74
2023/05/28 04:55:26;;;;;;;4.45;1.77;;;28.50;47.50;27.30;101146;;;;562516;249;23097;-75
2023/05/28 04:57:55;;;;;;;5.15;2.60;;;28.40;47.50;27.80;101145;;;;562420;250;23097;-79
2023/05/28 05:00:27;;;;;;;4.57;2.45;;;28.90;46.30;28.10;101143;;;;570974;250;23207;-74
2023/05/28 05:02:52;;;;;;;10.05;3.67;;;29.20;46.00;28.50;101141;;;;564988;247;23071;-75
2023/05/28 05:05:19;;;;;;;8.75;3.35;;;29.60;45.30;28.70;101146;;;;561469;251;23168;-76
2023/05/28 05:07:47;;;;;;;6.10;2.65;;;29.90;44.60;29.20;101145;;;;564772;250;24075;-75
2023/05/28 05:10:15;;;;;;;8.02;2.53;;;30.20;44.50;29.70;101141;;;;561275;251;23152;-76
2023/05/28 05:12:44;;;;;;;3.92;2.45;;;30.70;43.50;30.20;101146;;;;562817;250;23123;-75
2023/05/28 05:15:12;;;;;;;8.75;3.30;;;31.20;43.10;30.60;101152;;;;553761;254;23144;-74
2023/05/28 05:17:41;;;;;;;5.97;2.60;;;32.10;42.20;31.10;101150;;;;562057;251;23118;-75
2023/05/28 05:20:12;;;;;;;5.18;2.30;;;32.00;42.10;31.70;101156;;;;565192;250;23084;-75
2023/05/28 05:22:37;;;;;;;11.02;2.92;;;33.20;40.10;32.50;101150;;;;561950;251;23147;-76
2023/05/28 05:25:10;;;;;;;4.78;2.62;;;33.70;39.50;32.70;101154;;;;565218;248;23069;-74
2023/05/28 05:27:38;;;;;;;7.75;3.55;;;34.00;38.70;33.20;101157;;;;563092;251;23149;-75
2023/05/28 05:30:09;;;;;;;5.15;2.35;;;34.00;38.70;33.60;101159;;;;566304;250;23058;-76
2023/05/28 05:32:34;;;;;;;7.25;3.35;;;34.40;38.30;33.90;101156;;;;555631;254;23166;-75
2023/05/28 05:35:02;;;;;;;10.70;4.10;;;34.80;37.90;34.20;101148;;;;562770;251;23108;-76
2023/05/28 05:37:30;;;;;;;4.82;2.03;;;35.10;37.40;34.70;101152;;;;566340;248;23083;-79
2023/05/28 05:39:58;;;;;;;5.60;2.28;;;35.60;37.30;35.30;101151;;;;556700;250;28429;-75
2023/05/28 05:42:26;;;;;;;2.50;1.92;;;36.10;37.10;36.00;101155;;;;566592;250;23102;-77
2023/05/28 05:44:55;;;;;;;7.07;2.30;;;36.60;36.40;36.30;101151;;;;562964;251;24142;-79
2023/05/28 05:47:23;;;;;;;1.73;1.48;;;37.10;35.80;36.70;101157;;;;566228;248;23160;-77
2023/05/28 05:49:51;;;;;;;3.70;1.92;;;37.40;35.40;37.30;101152;;;;565027;253;23108;-79
2023/05/28 05:52:19;;;;;;;2.95;1.67;;;38.00;35.20;37.90;101147;;;;563211;251;23149;-80
2023/05/28 05:54:48;;;;;;;3.70;2.37;;;38.50;34.50;38.30;101154;;;;566263;248;23071;-80
2023/05/28 05:57:17;;;;;;;7.25;2.50;;;38.90;34.00;38.80;101150;;;;556507;254;23150;-77
2023/05/28 05:59:47;;;;;;;7.78;2.22;;;39.70;32.90;39.10;101154;;;;562419;251;23109;-76
2023/05/28 06:02:17;;;;;;;6.28;2.42;;;39.70;32.90;39.50;101148;;;;565338;250;23102;-76
2023/05/28 06:04:45;;;;;;;7.78;3.00;;;40.10;32.60;39.90;101154;;;;555998;254;23086;-77
2023/05/28 06:07:17;;;;;;;4.47;2.15;;;40.50;32.30;40.30;101149;;;;562616;251;23094;-76
2023/05/28 06:09:42;;;;;;;7.60;2.85;;;41.00;31.70;40.40;101152;;;;563987;254;23176;-78
2023/05/28 06:12:10;;;;;;;5.53;2.33;;;41.00;32.40;40.70;101148;;;;557349;251;35302;-78
2023/05/28 06:14:38;;;;;;;3.45;2.10;;;41.30;31.30;40.80;101156;;;;566135;248;23078;-80
2023/05/28 06:17:06;;;;;;;3.40;1.60;;;41.50;31.30;41.20;101159;;;;555405;254;23091;-83
2023/05/28 06:19:34;;;;;;;5.97;2.67;;;41.80;31.50;41.60;101157;;;;558544;251;35389;-85
2023/05/28 06:22:02;;;;;;;9.07;3.22;;;42.00;31.40;41.60;101161;;;;565653;250;23065;-77
2023/05/28 06:24:30;;;;;;;9.55;3.62;;;42.60;30.30;42.20;101155;;;;554125;254;23173;-76
2023/05/28 06:26:59;;;;;;;9.80;3.15;;;42.90;30.30;42.40;101158;;;;562427;251;23118;-75
2023/05/28 06:29:27;;;;;;;4.50;2.60;;;42.90;30.20;42.70;101161;;;;565489;248;23089;-76
2023/05/28 06:32:01;;;;;;;3.67;1.92;;;43.20;30.90;43.00;101155;;;;554497;254;23106;-84
2023/05/28 06:34:26;;;;;;;7.90;3.08;;;43.40;30.10;43.30;101149;;;;555532;254;23102;-76
2023/05/28 06:36:53;;;;;;;11.15;3.15;;;43.70;30.00;43.60;101146;;;;562404;249;23141;-76
2023/05/28 06:39:22;;;;;;;4.93;2.40;;;44.00;29.40;43.80;101154;;;;566501;248;23106;-79
2023/05/28 06:41:49;;;;;;;5.47;2.62;;;44.30;29.40;44.20;101147;;;;554722;254;23097;-77
2023/05/28 06:44:17;;;;;;;7.05;2.92;;;44.60;29.30;44.50;101147;;;;557835;251;23117;-77
2023/05/28 06:46:46;;;;;;;9.80;2.50;;;45.20;29.00;44.90;101150;;;;563416;250;23117;-79
2023/05/28 06:49:15;;;;;;;8.73;3.58;;;45.50;28.90;45.10;101150;;;;554762;254;23156;-76
2023/05/28 06:51:43;;;;;;;9.80;3.45;;;45.60;28.50;45.30;101156;;;;563118;251;23188;-75
2023/05/28 06:54:11;;;;;;;5.93;2.90;;;45.60;28.50;45.30;101147;;;;566100;245;23205;-76
2023/05/28 06:56:39;;;;;;;9.93;3.90;;;45.70;28.30;45.30;101147;;;;554474;254;23123;-76
2023/05/28 06:59:09;;;;;;;9.20;3.67;;;45.70;28.50;45.40;101149;;;;557450;251;23161;-76
2023/05/28 07:01:36;;;;;;;3.10;2.30;;;45.80;28.20;45.60;101143;;;;565191;250;23077;-77
2023/05/28 07:04:04;;;;;;;7.05;3.33;;;45.90;28.30;45.70;101140;;;;562266;251;23130;-76
2023/05/28 07:06:33;;;;;;;3.90;2.05;;;46.00;27.80;45.60;101151;;;;564976;250;23070;-76
2023/05/28 07:09:02;;;;;;;2.70;1.85;;;46.10;28.00;45.80;101148;;;;563326;253;23130;-76
2023/05/28 07:11:30;;;;;;;5.20;2.10;;;46.20;27.60;45.80;101148;;;;561866;251;23091;-77
2023/05/28 07:13:59;;;;;;;4.18;2.03;;;46.20;27.80;45.90;101154;;;;565299;245;23073;-77
2023/05/28 07:16:27;;;;;;;4.45;2.00;;;46.20;27.60;46.40;101152;;;;554593;255;23097;-78
2023/05/28 07:18:56;;;;;;;8.52;2.92;;;46.40;27.10;46.50;101152;;;;562287;251;23130;-77
2023/05/28 07:21:24;;;;;;;4.68;2.42;;;46.70;27.20;46.70;101148;;;;565219;248;24118;-76
2023/05/28 07:23:51;;;;;;;3.62;1.80;;;47.00;27.40;47.00;101154;;;;554198;254;23086;-77
2023/05/28 07:26:20;;;;;;;3.97;2.10;;;47.20;27.20;47.20;101144;;;;562157;251;23095;-76
2023/05/28 07:28:47;;;;;;;3.87;2.37;;;47.40;27.40;46.90;101148;;;;565169;250;23119;-77
2023/05/28 07:31:15;;;;;;;5.60;2.60;;;47.30;27.00;46.90;101144;;;;554092;254;23167;-79
2023/05/28 07:33:43;;;;;;;5.12;2.78;;;47.30;27.00;47.30;101147;;;;561988;251;23105;-76
2023/05/28 07:36:12;;;;;;;5.25;2.22;;;47.50;26.90;47.50;101143;;;;565155;248;23112;-76
2023/05/28 07:38:39;;;;;;;8.00;2.90;;;47.70;26.60;47.50;101145;;;;554010;254;23110;-77
2023/05/28 07:41:07;;;;;;;4.50;2.60;;;47.80;27.20;47.60;101144;;;;556861;251;35311;-76
2023/05/28 07:43:35;;;;;;;4.62;1.98;;;47.90;26.60;47.30;101148;;;;565268;246;23117;-76
2023/05/28 07:46:03;;;;;;;3.90;1.85;;;47.70;26.70;47.30;101142;;;;554548;255;23085;-79
2023/05/28 07:48:32;;;;;;;8.18;3.22;;;47.80;26.50;47.60;101150;;;;561864;249;23144;-78
2023/05/28 07:51:01;;;;;;;8.73;3.45;;;47.90;26.30;47.80;101139;;;;566616;245;24082;-76
2023/05/28 07:53:29;;;;;;;3.10;2.22;;;47.90;26.30;48.00;101140;;;;555043;254;23122;-75
2023/05/28 07:55:57;;;;;;;3.95;2.25;;;48.10;26.50;48.00;101149;;;;562948;251;24140;-76
2023/05/28 07:58:25;;;;;;;7.47;2.95;;;48.20;26.40;48.10;101137;;;;565949;250;23114;-80
2023/05/28 08:00:52;;;;;;;6.47;2.92;;;48.30;26.80;48.20;101136;;;;554611;254;23216;-85
2023/05/28 08:03:23;;;;;;;7.97;3.50;;;48.50;26.80;48.30;101134;;;;562751;251;23111;-75
2023/05/28 08:05:48;;;;;;;11.00;3.25;;;48.60;26.60;48.60;101130;;;;565540;250;23072;-76
2023/05/28 08:08:16;;;;;;;4.62;2.35;;;48.90;26.10;48.70;101123;;;;554172;254;23142;-75
2023/05/28 08:10:45;;;;;;;5.57;3.35;;;49.40;26.50;49.20;101122;;;;561955;251;23090;-77
2023/05/28 08:13:14;;;;;;;12.73;4.82;;;49.40;26.50;49.40;101116;;;;556061;254;23149;-83
2023/05/28 08:15:43;;;;;;;6.35;2.25;;;49.90;26.30;49.60;101115;;;;562339;251;23176;-77
2023/05/28 08:18:12;;;;;;;4.57;2.78;;;50.10;26.00;49.90;101109;;;;565648;245;23056;-78
2023/05/28 08:20:44;;;;;;;10.85;3.47;;;50.30;26.00;50.00;101116;;;;554123;254;23123;-76
2023/05/28 08:23:08;;;;;;;9.00;3.08;;;50.20;25.90;50.10;101112;;;;561664;251;23123;-80
2023/05/28 08:25:36;;;;;;;7.32;3.03;;;50.40;26.10;50.10;101112;;;;564977;246;23130;-76
2023/05/28 08:28:05;;;;;;;6.62;3.42;;;50.60;25.80;50.00;101113;;;;563442;253;23120;-77
2023/05/28 08:30:32;;;;;;;7.97;3.35;;;50.50;25.50;50.20;101110;;;;565757;250;23144;-85
2023/05/28 08:33:01;;;;;;;6.43;3.42;;;50.60;25.50;50.10;101105;;;;561740;251;24139;-80
2023/05/28 08:35:29;;;;;;;7.78;3.15;;;50.50;25.40;50.10;101106;;;;564730;248;23103;-81
2023/05/28 08:37:56;;;;;;;7.50;3.20;;;50.60;26.10;50.30;101103;;;;548949;254;35304;-82
2023/05/28 08:40:24;;;;;;;2.40;2.15;;;50.80;25.70;50.40;101100;;;;561699;251;23105;-77
2023/05/28 08:42:52;;;;;;;4.82;2.62;;;51.00;25.10;50.40;101101;;;;564650;250;23120;-77
2023/05/28 08:45:20;;;;;;;5.00;2.12;;;51.10;25.60;50.80;101103;;;;563065;253;23124;-81
2023/05/28 08:47:48;;;;;;;5.62;2.70;;;51.40;25.50;51.10;101092;;;;561598;251;23184;-78
2023/05/28 08:50:16;;;;;;;6.37;2.22;;;51.70;25.50;51.20;101086;;;;565086;250;23091;-79
2023/05/28 08:52:44;;;;;;;6.87;3.17;;;51.80;25.30;51.30;101089;;;;561700;251;23192;-85
2023/05/28 08:55:12;;;;;;;10.55;4.60;;;52.00;25.20;51.30;101092;;;;565288;247;23087;-79
2023/05/28 08:57:40;;;;;;;5.70;3.97;;;52.20;25.00;51.30;101090;;;;562214;251;23111;-78
2023/05/28 09:00:12;;;;;;;11.93;3.65;;;52.00;24.80;51.00;101084;;;;565438;247;23160;-75
2023/05/28 09:02:41;;;;;;;3.55;2.03;;;51.90;25.30;51.00;101085;;;;555674;249;23140;-77
2023/05/28 09:05:06;;;;;;;18.95;3.90;;;51.80;25.20;51.00;101077;;;;562511;249;23155;-77
2023/05/28 09:07:34;;;;;;;10.15;3.37;;;52.00;25.20;51.20;101081;;;;563948;253;23137;-81
2023/05/28 09:10:03;;;;;;;7.37;3.10;;;52.10;25.10;51.50;101079;;;;563158;251;23090;-79
2023/05/28 09:12:30;;;;;;;2.87;2.20;;;52.50;25.10;51.60;101078;;;;555881;254;23098;-77
2023/05/28 09:14:59;;;;;;;4.90;2.75;;;52.60;24.90;51.50;101068;;;;562672;251;23155;-76
2023/05/28 09:17:35;;;;;;;7.22;3.55;;;52.60;24.90;51.50;101073;;;;564992;250;23164;-76
2023/05/28 09:20:15;;;;;;;13.45;4.47;;;52.80;25.00;51.60;101064;;;;570395;250;23121;-85
2023/05/28 09:22:46;;;;;;;8.10;3.17;;;52.80;25.00;51.80;101066;;;;565380;250;23091;-76
2023/05/28 09:25:11;;;;;;;6.00;3.30;;;53.00;24.70;51.70;101070;;;;561579;249;23121;-76
2023/05/28 09:27:42;;;;;;;6.47;4.03;;;52.90;24.60;51.40;101071;;;;562860;248;23160;-76
2023/05/28 09:30:11;;;;;;;8.50;3.45;;;52.70;24.40;51.20;101063;;;;570231;251;23164;-77
2023/05/28 09:32:35;;;;;;;4.22;2.50;;;52.50;24.80;51.00;101067;;;;564570;250;23096;-78
2023/05/28 09:35:06;;;;;;;9.23;3.55;;;52.40;24.90;51.30;101066;;;;562011;250;23106;-77
2023/05/28 09:37:33;;;;;;;7.85;3.67;;;52.50;24.90;51.40;101065;;;;564735;250;24101;-79
2023/05/28 09:40:09;;;;;;;7.53;3.03;;;52.90;24.70;51.70;101065;;;;561776;250;23130;-76
2023/05/28 09:42:43;;;;;;;4.70;2.83;;;52.90;24.60;51.70;101061;;;;564514;247;23076;-79
2023/05/28 09:45:14;;;;;;;6.75;2.65;;;53.00;24.60;52.10;101056;;;;562105;251;23102;-83
2023/05/28 09:47:42;;;;;;;5.60;2.70;;;53.30;24.30;52.20;101056;;;;554727;250;23119;-80
2023/05/28 09:50:10;;;;;;;3.78;2.58;;;53.60;24.40;52.00;101050;;;;563478;253;23100;-78
2023/05/28 09:52:41;;;;;;;3.62;2.62;;;53.70;24.60;52.40;101040;;;;562050;250;23153;-77
2023/05/28 09:55:09;;;;;;;8.13;3.53;;;53.60;24.10;51.60;101038;;;;555186;250;23116;-78
2023/05/28 09:57:38;;;;;;;4.95;2.42;;;53.20;24.30;51.30;101037;;;;555099;251;23114;-77
2023/05/28 10:00:14;;;;;;;2.53;2.30;;;53.20;24.20;50.80;101045;;;;554965;252;23104;-82
2023/05/28 10:03:01;;;;;;;2.75;2.50;;;52.40;24.80;50.50;101043;;;;562057;251;23137;-85
2023/05/28 10:05:28;;;;;;;3.95;2.25;;;52.30;24.80;50.40;101046;;;;552590;254;23119;-78
2023/05/28 10:07:56;;;;;;;6.75;3.53;;;52.20;24.80;50.60;101041;;;;565337;251;23119;-79
2023/05/28 10:10:24;;;;;;;2.60;2.40;;;52.20;24.70;50.30;101038;;;;564868;246;23083;-83
2023/05/28 10:12:53;;;;;;;5.20;2.50;;;52.00;24.70;49.60;101035;;;;563337;251;23122;-85
2023/05/28 10:15:20;;;;;;;2.58;2.20;;;51.30;24.80;48.80;101032;;;;556650;250;23194;-76
2023/05/28 10:17:47;;;;;;;2.00;1.90;;;50.60;25.00;48.20;101035;;;;562826;251;24193;-76
2023/05/28 10:20:15;;;;;;;2.83;2.17;;;49.80;25.20;47.90;101032;;;;565537;245;23131;-76
2023/05/28 10:22:43;;;;;;;3.22;2.22;;;49.40;24.80;47.10;101033;;;;562519;251;23105;-77
2023/05/28 10:25:14;;;;;;;3.15;2.15;;;48.80;25.70;46.60;101028;;;;560865;247;35149;-77
2023/05/28 10:27:39;;;;;;;6.12;2.00;;;48.40;25.70;45.50;101033;;;;562675;249;23188;-80
2023/05/28 10:30:07;;;;;;;9.68;2.83;;;47.40;25.90;44.20;101026;;;;555425;254;23121;-78
2023/05/28 10:32:41;;;;;;;5.37;2.67;;;46.30;26.00;43.10;101031;;;;555598;254;23132;-76
2023/05/28 10:35:06;;;;;;;6.30;2.30;;;45.00;26.60;41.40;101026;;;;561989;249;23087;-76
2023/05/28 10:37:34;;;;;;;2.40;2.17;;;43.20;27.00;39.80;101017;;;;565465;250;23079;-78
2023/05/28 10:40:06;;;;;;;3.80;2.08;;;39.90;28.50;38.70;101020;;;;557436;251;35245;-76
2023/05/28 10:42:31;;;;;;;4.35;2.30;;;39.80;28.40;37.90;101014;;;;565362;250;24142;-83
2023/05/28 10:45:09;;;;;;;2.28;1.95;;;38.60;29.20;37.00;101019;;;;562389;251;23090;-81
2023/05/28 10:47:36;;;;;;;4.70;2.37;;;36.50;31.70;36.00;101006;;;;565170;250;23077;-81
2023/05/28 10:50:13;;;;;;;5.05;2.00;;;36.40;30.90;34.80;101008;;;;561463;251;24139;-83
2023/05/28 10:52:41;;;;;;;5.57;2.35;;;35.40;31.50;33.60;101007;;;;564951;247;23155;-81
2023/05/28 10:55:09;;;;;;;2.47;2.22;;;34.40;32.70;32.80;101003;;;;554957;255;23097;-80
2023/05/28 10:57:48;;;;;;;2.28;2.05;;;33.40;33.70;31.90;101001;;;;555178;254;24160;-85
2023/05/28 11:00:25;;;;;;;2.50;1.90;;;32.50;34.10;30.90;101002;;;;561370;251;23109;-82
2023/05/28 11:02:53;;;;;;;4.03;1.80;;;31.50;34.90;30.10;100998;;;;555086;254;24086;-82
2023/05/28 11:05:25;;;;;;;3.05;2.25;;;30.00;36.70;29.50;100996;;;;561899;251;23103;-75
2023/05/28 11:07:52;;;;;;;2.67;1.67;;;29.90;36.60;29.00;100986;;;;565000;250;24120;-78
2023/05/28 11:10:20;;;;;;;2.53;1.98;;;29.40;37.20;28.40;100985;;;;561844;251;23103;-78
2023/05/28 11:12:48;;;;;;;2.85;1.83;;;29.00;37.40;27.70;100983;;;;564806;250;23126;-77
2023/05/28 11:15:16;;;;;;;3.43;1.93;;;28.30;38.00;27.20;100985;;;;561784;251;24111;-73
2023/05/28 11:17:44;;;;;;;4.27;1.90;;;27.70;39.50;26.80;100981;;;;564777;247;23087;-74